Colerain, OH (43916)

5:51 AM EDT on September 19, 2014 (GMT -0400)
Crawford Heights | Change Station
CLOSE
Current Station
Personal Weather Station
Location: Martins Ferry, OH
Elevation: 1109 ft
Nearby Weather Stations

Elev 1109 ft 40.09 °N, 80.75 °W | Updated 2 minutes ago

Clear
Clear
50.2 °F
Feels Like 50.2 °F
N
4.2
Wind Variable Wind from SE

Today
High -- | Low -- °F
--% Chance of Precip.
Yesterday
High -- | Low -- °F
Precip. -- in
7:07 AM 7:25 PM
Waning Crescent, 20% visible
Pressure 30.20 in
Visibility 8.0 miles
Clouds Clear
Dew Point 48 °F
Humidity 92%
Rainfall 0.00 in
Snow Depth Not available.
UV 0 out of 12
Pollen 3.80 out of 12
Air Quality Not available.
Flu Activity Not available.
METAR KHLG 190853Z AUTO 04006KT 8SM CLR 10/08 A3019 RMK AO2 SLP226 T01000083 53002

More Conditions Fewer Conditions

Pressure 30.20 in
Visibility 8.0 miles
Clouds Clear
Dew Point 48 °F
Humidity 92%
Rainfall 0.00 in
Snow Depth Not available.
UV 0 out of 12
Pollen 3.80 out of 12
Air Quality Not available.
Flu Activity Not available.
METAR KHLG 190853Z AUTO 04006KT 8SM CLR 10/08 A3019 RMK AO2 SLP226 T01000083 53002

More Conditions Fewer Conditions

10-Day Weather Forecast

Almanac

Astronomy

Sep. 19, 2014 Rise Set
Actual Time 7:07 AM EDT 7:25 PM EDT
Civil Twilight 6:40 AM EDT 7:52 PM EDT
Nautical Twilight 6:08 AM EDT 8:23 PM EDT
Astronomical Twilight 5:36 AM EDT 8:56 PM EDT
Moon 2:51 AM EDT 4:53 PM EDT
Length of Visible Light 13h 11m
Length of Day
12h 17m
Tomorrow will be 2m 37s shorter.
Waning Crescent, 20% of the Moon is Illuminated
Today
Waning Crescent
Sep 24
New
Oct 1
First Quarter
Oct 8
Full
Oct 15
Last Quarter

Today's Extremes

State Highs State Lows

Community

WunderPhotos

Upload Photos

1,754,583 photos uploaded!

Nearby

Snow Depth

Station Depth Elevation
No new snow has been reported.

Earthquake Activity

City Distance Mag. Time & Date
No recent earthquake activity has been reported nearby.
Minimum magnitude displayed is 2.5.

Coastal Water Temperatures

Place Temperature
No Stations Reporting

Nearby Weather Stations